sensor_id;sensor_type;location;lat;lon;timestamp;P1;durP1;ratioP1;P2;durP2;ratioP2
30850;SDS011;17567;48.382;9.102;2022-09-09T00:02:21;3.93;;;1.00;;
30850;SDS011;17567;48.382;9.102;2022-09-09T00:23:19;8.33;;;1.20;;
30850;SDS011;17567;48.382;9.102;2022-09-09T00:28:28;1.43;;;0.90;;
30850;SDS011;17567;48.382;9.102;2022-09-09T00:33:32;1.53;;;0.90;;
30850;SDS011;17567;48.382;9.102;2022-09-09T00:38:37;1.03;;;0.90;;
30850;SDS011;17567;48.382;9.102;2022-09-09T00:43:42;4.40;;;1.17;;
30850;SDS011;17567;48.382;9.102;2022-09-09T00:59:28;1.60;;;1.20;;
30850;SDS011;17567;48.382;9.102;2022-09-09T01:04:36;2.93;;;1.00;;
30850;SDS011;17567;48.382;9.102;2022-09-09T01:09:56;2.10;;;1.10;;
30850;SDS011;17567;48.382;9.102;2022-09-09T01:15:07;1.07;;;0.90;;
30850;SDS011;17567;48.382;9.102;2022-09-09T01:26:12;3.43;;;1.40;;
30850;SDS011;17567;48.382;9.102;2022-09-09T01:31:30;7.93;;;1.13;;
30850;SDS011;17567;48.382;9.102;2022-09-09T01:36:38;3.60;;;1.20;;
30850;SDS011;17567;48.382;9.102;2022-09-09T01:42:01;2.60;;;1.27;;
30850;SDS011;17567;48.382;9.102;2022-09-09T01:47:04;1.83;;;1.10;;
30850;SDS011;17567;48.382;9.102;2022-09-09T01:52:06;2.63;;;1.00;;
30850;SDS011;17567;48.382;9.102;2022-09-09T02:02:36;2.27;;;1.10;;
30850;SDS011;17567;48.382;9.102;2022-09-09T02:07:56;2.83;;;1.10;;
30850;SDS011;17567;48.382;9.102;2022-09-09T02:13:21;2.37;;;1.20;;
30850;SDS011;17567;48.382;9.102;2022-09-09T02:18:24;1.17;;;1.00;;
30850;SDS011;17567;48.382;9.102;2022-09-09T02:23:47;2.27;;;1.20;;
30850;SDS011;17567;48.382;9.102;2022-09-09T02:28:52;1.83;;;1.20;;
30850;SDS011;17567;48.382;9.102;2022-09-09T02:33:58;1.30;;;1.10;;
30850;SDS011;17567;48.382;9.102;2022-09-09T02:39:01;2.87;;;1.10;;
30850;SDS011;17567;48.382;9.102;2022-09-09T02:44:08;1.30;;;1.00;;
30850;SDS011;17567;48.382;9.102;2022-09-09T02:49:19;4.03;;;1.27;;
30850;SDS011;17567;48.382;9.102;2022-09-09T02:55:00;1.83;;;1.00;;
30850;SDS011;17567;48.382;9.102;2022-09-09T03:00:09;3.40;;;1.20;;
30850;SDS011;17567;48.382;9.102;2022-09-09T03:05:11;1.33;;;1.20;;
30850;SDS011;17567;48.382;9.102;2022-09-09T03:10:13;3.23;;;1.20;;
30850;SDS011;17567;48.382;9.102;2022-09-09T03:15:13;1.80;;;1.40;;
30850;SDS011;17567;48.382;9.102;2022-09-09T03:20:15;1.63;;;1.17;;
30850;SDS011;17567;48.382;9.102;2022-09-09T03:25:16;3.27;;;1.73;;
30850;SDS011;17567;48.382;9.102;2022-09-09T03:30:17;6.03;;;1.87;;
30850;SDS011;17567;48.382;9.102;2022-09-09T03:35:18;4.40;;;1.80;;
30850;SDS011;17567;48.382;9.102;2022-09-09T03:40:19;4.23;;;1.80;;
30850;SDS011;17567;48.382;9.102;2022-09-09T03:45:20;1.63;;;1.30;;
30850;SDS011;17567;48.382;9.102;2022-09-09T03:50:21;4.40;;;1.73;;
30850;SDS011;17567;48.382;9.102;2022-09-09T03:55:21;3.53;;;1.40;;
30850;SDS011;17567;48.382;9.102;2022-09-09T04:00:22;3.10;;;1.37;;
30850;SDS011;17567;48.382;9.102;2022-09-09T04:05:23;3.20;;;1.40;;
30850;SDS011;17567;48.382;9.102;2022-09-09T04:10:24;1.87;;;1.30;;
30850;SDS011;17567;48.382;9.102;2022-09-09T04:15:24;1.87;;;1.20;;
30850;SDS011;17567;48.382;9.102;2022-09-09T04:20:25;2.17;;;1.27;;
30850;SDS011;17567;48.382;9.102;2022-09-09T04:25:26;2.27;;;1.20;;
30850;SDS011;17567;48.382;9.102;2022-09-09T04:30:27;1.00;;;0.90;;
30850;SDS011;17567;48.382;9.102;2022-09-09T04:35:27;8.00;;;1.20;;
30850;SDS011;17567;48.382;9.102;2022-09-09T04:40:28;2.40;;;1.17;;
30850;SDS011;17567;48.382;9.102;2022-09-09T04:45:29;3.07;;;1.47;;
30850;SDS011;17567;48.382;9.102;2022-09-09T04:50:30;2.40;;;1.30;;
30850;SDS011;17567;48.382;9.102;2022-09-09T04:55:32;3.13;;;1.27;;
30850;SDS011;17567;48.382;9.102;2022-09-09T05:00:34;2.83;;;1.57;;
30850;SDS011;17567;48.382;9.102;2022-09-09T05:05:35;3.00;;;1.40;;
30850;SDS011;17567;48.382;9.102;2022-09-09T05:10:37;3.00;;;1.40;;
30850;SDS011;17567;48.382;9.102;2022-09-09T05:15:38;4.73;;;1.60;;
30850;SDS011;17567;48.382;9.102;2022-09-09T05:20:39;1.93;;;1.60;;
30850;SDS011;17567;48.382;9.102;2022-09-09T05:25:42;4.17;;;1.50;;
30850;SDS011;17567;48.382;9.102;2022-09-09T05:30:43;2.03;;;1.40;;
30850;SDS011;17567;48.382;9.102;2022-09-09T05:35:44;1.63;;;1.33;;
30850;SDS011;17567;48.382;9.102;2022-09-09T05:40:47;1.77;;;1.47;;
30850;SDS011;17567;48.382;9.102;2022-09-09T05:45:58;2.23;;;1.20;;
30850;SDS011;17567;48.382;9.102;2022-09-09T05:51:01;3.63;;;1.63;;
30850;SDS011;17567;48.382;9.102;2022-09-09T05:56:03;4.13;;;2.03;;
30850;SDS011;17567;48.382;9.102;2022-09-09T06:06:17;4.10;;;1.77;;
30850;SDS011;17567;48.382;9.102;2022-09-09T06:11:30;3.63;;;1.83;;
30850;SDS011;17567;48.382;9.102;2022-09-09T06:16:31;4.47;;;2.73;;
30850;SDS011;17567;48.382;9.102;2022-09-09T06:21:34;5.00;;;2.30;;
30850;SDS011;17567;48.382;9.102;2022-09-09T06:26:40;4.03;;;1.90;;
30850;SDS011;17567;48.382;9.102;2022-09-09T06:31:41;6.53;;;2.53;;
30850;SDS011;17567;48.382;9.102;2022-09-09T06:36:41;3.37;;;1.90;;
30850;SDS011;17567;48.382;9.102;2022-09-09T06:41:42;1.97;;;1.70;;
30850;SDS011;17567;48.382;9.102;2022-09-09T06:46:43;4.70;;;1.87;;
30850;SDS011;17567;48.382;9.102;2022-09-09T06:51:47;3.53;;;1.80;;
30850;SDS011;17567;48.382;9.102;2022-09-09T06:56:49;3.93;;;1.67;;
30850;SDS011;17567;48.382;9.102;2022-09-09T07:01:50;2.33;;;1.40;;
30850;SDS011;17567;48.382;9.102;2022-09-09T07:06:51;3.20;;;1.33;;
30850;SDS011;17567;48.382;9.102;2022-09-09T07:11:52;5.20;;;2.10;;
30850;SDS011;17567;48.382;9.102;2022-09-09T07:16:53;4.47;;;1.83;;
30850;SDS011;17567;48.382;9.102;2022-09-09T07:21:54;2.43;;;1.50;;
30850;SDS011;17567;48.382;9.102;2022-09-09T07:26:54;2.13;;;1.83;;
30850;SDS011;17567;48.382;9.102;2022-09-09T07:31:55;6.10;;;2.20;;
30850;SDS011;17567;48.382;9.102;2022-09-09T07:36:56;2.90;;;1.50;;
30850;SDS011;17567;48.382;9.102;2022-09-09T07:41:57;3.77;;;1.60;;
30850;SDS011;17567;48.382;9.102;2022-09-09T07:46:58;4.83;;;1.30;;
30850;SDS011;17567;48.382;9.102;2022-09-09T07:51:59;4.57;;;1.40;;
30850;SDS011;17567;48.382;9.102;2022-09-09T07:57:00;3.57;;;1.20;;
30850;SDS011;17567;48.382;9.102;2022-09-09T08:02:03;4.23;;;1.30;;
30850;SDS011;17567;48.382;9.102;2022-09-09T08:07:04;4.63;;;1.30;;
30850;SDS011;17567;48.382;9.102;2022-09-09T08:12:05;3.27;;;1.20;;
30850;SDS011;17567;48.382;9.102;2022-09-09T08:17:07;2.30;;;1.20;;
30850;SDS011;17567;48.382;9.102;2022-09-09T08:22:07;4.40;;;1.20;;
30850;SDS011;17567;48.382;9.102;2022-09-09T08:27:08;2.27;;;1.00;;
30850;SDS011;17567;48.382;9.102;2022-09-09T08:32:09;1.87;;;1.03;;
30850;SDS011;17567;48.382;9.102;2022-09-09T08:37:10;5.70;;;1.20;;
30850;SDS011;17567;48.382;9.102;2022-09-09T08:42:18;2.67;;;1.17;;
30850;SDS011;17567;48.382;9.102;2022-09-09T08:58:09;4.67;;;1.30;;
30850;SDS011;17567;48.382;9.102;2022-09-09T09:08:39;7.37;;;1.27;;
30850;SDS011;17567;48.382;9.102;2022-09-09T09:13:44;3.10;;;1.27;;
30850;SDS011;17567;48.382;9.102;2022-09-09T09:18:51;3.77;;;1.03;;
30850;SDS011;17567;48.382;9.102;2022-09-09T09:23:57;2.30;;;1.10;;
30850;SDS011;17567;48.382;9.102;2022-09-09T09:29:00;3.87;;;1.10;;
30850;SDS011;17567;48.382;9.102;2022-09-09T09:34:15;4.37;;;0.93;;
30850;SDS011;17567;48.382;9.102;2022-09-09T09:39:30;6.00;;;1.07;;
30850;SDS011;17567;48.382;9.102;2022-09-09T09:44:38;3.93;;;1.13;;
30850;SDS011;17567;48.382;9.102;2022-09-09T09:49:39;2.47;;;0.93;;
30850;SDS011;17567;48.382;9.102;2022-09-09T09:54:56;6.17;;;1.30;;
30850;SDS011;17567;48.382;9.102;2022-09-09T10:00:19;3.40;;;1.07;;
30850;SDS011;17567;48.382;9.102;2022-09-09T10:05:24;1.70;;;0.80;;
30850;SDS011;17567;48.382;9.102;2022-09-09T10:10:30;7.67;;;1.10;;
30850;SDS011;17567;48.382;9.102;2022-09-09T10:15:58;4.40;;;0.97;;
30850;SDS011;17567;48.382;9.102;2022-09-09T10:32:17;2.13;;;0.80;;
30850;SDS011;17567;48.382;9.102;2022-09-09T10:36:56;1.90;;;0.80;;
30850;SDS011;17567;48.382;9.102;2022-09-09T10:42:04;2.60;;;0.60;;
30850;SDS011;17567;48.382;9.102;2022-09-09T10:57:33;3.27;;;1.10;;
30850;SDS011;17567;48.382;9.102;2022-09-09T11:02:44;3.50;;;0.87;;
30850;SDS011;17567;48.382;9.102;2022-09-09T11:08:09;2.43;;;0.90;;
30850;SDS011;17567;48.382;9.102;2022-09-09T11:13:39;1.67;;;0.73;;
30850;SDS011;17567;48.382;9.102;2022-09-09T11:19:01;4.80;;;1.10;;
30850;SDS011;17567;48.382;9.102;2022-09-09T11:24:30;2.07;;;0.70;;
30850;SDS011;17567;48.382;9.102;2022-09-09T11:34:52;2.60;;;0.70;;
30850;SDS011;17567;48.382;9.102;2022-09-09T11:45:24;3.77;;;0.93;;
30850;SDS011;17567;48.382;9.102;2022-09-09T11:50:35;2.23;;;1.00;;
30850;SDS011;17567;48.382;9.102;2022-09-09T11:55:37;3.23;;;0.50;;
30850;SDS011;17567;48.382;9.102;2022-09-09T12:00:41;3.50;;;0.73;;
30850;SDS011;17567;48.382;9.102;2022-09-09T12:05:47;0.60;;;0.50;;
30850;SDS011;17567;48.382;9.102;2022-09-09T12:10:58;6.73;;;0.90;;
30850;SDS011;17567;48.382;9.102;2022-09-09T12:16:03;2.67;;;0.50;;
30850;SDS011;17567;48.382;9.102;2022-09-09T12:21:07;1.93;;;0.60;;
30850;SDS011;17567;48.382;9.102;2022-09-09T12:31:33;1.00;;;0.60;;
30850;SDS011;17567;48.382;9.102;2022-09-09T12:36:38;5.13;;;0.80;;
30850;SDS011;17567;48.382;9.102;2022-09-09T12:41:50;4.63;;;0.80;;
30850;SDS011;17567;48.382;9.102;2022-09-09T12:46:58;3.93;;;0.70;;
30850;SDS011;17567;48.382;9.102;2022-09-09T12:52:03;2.23;;;0.70;;
30850;SDS011;17567;48.382;9.102;2022-09-09T12:57:09;4.23;;;0.60;;
30850;SDS011;17567;48.382;9.102;2022-09-09T13:02:20;5.37;;;0.77;;
30850;SDS011;17567;48.382;9.102;2022-09-09T13:07:22;4.80;;;0.70;;
30850;SDS011;17567;48.382;9.102;2022-09-09T13:12:25;1.77;;;0.60;;
30850;SDS011;17567;48.382;9.102;2022-09-09T13:17:27;2.13;;;0.60;;
30850;SDS011;17567;48.382;9.102;2022-09-09T13:22:35;1.57;;;0.60;;
30850;SDS011;17567;48.382;9.102;2022-09-09T13:27:40;2.13;;;0.77;;
30850;SDS011;17567;48.382;9.102;2022-09-09T13:32:42;1.50;;;0.63;;
30850;SDS011;17567;48.382;9.102;2022-09-09T13:37:43;3.97;;;0.60;;
30850;SDS011;17567;48.382;9.102;2022-09-09T13:42:44;2.07;;;0.60;;
30850;SDS011;17567;48.382;9.102;2022-09-09T13:47:45;2.17;;;0.50;;
30850;SDS011;17567;48.382;9.102;2022-09-09T13:52:47;2.67;;;0.70;;
30850;SDS011;17567;48.382;9.102;2022-09-09T13:57:51;1.50;;;0.57;;
30850;SDS011;17567;48.382;9.102;2022-09-09T14:02:55;1.67;;;0.50;;
30850;SDS011;17567;48.382;9.102;2022-09-09T14:07:56;2.20;;;0.50;;
30850;SDS011;17567;48.382;9.102;2022-09-09T14:12:57;1.03;;;0.50;;
30850;SDS011;17567;48.382;9.102;2022-09-09T14:17:58;3.47;;;0.50;;
30850;SDS011;17567;48.382;9.102;2022-09-09T14:22:59;2.50;;;0.60;;
30850;SDS011;17567;48.382;9.102;2022-09-09T14:28:00;2.27;;;0.60;;
30850;SDS011;17567;48.382;9.102;2022-09-09T14:33:01;1.70;;;0.60;;
30850;SDS011;17567;48.382;9.102;2022-09-09T14:38:03;1.37;;;0.50;;
30850;SDS011;17567;48.382;9.102;2022-09-09T14:43:04;2.27;;;1.03;;
30850;SDS011;17567;48.382;9.102;2022-09-09T14:48:09;2.10;;;0.50;;
30850;SDS011;17567;48.382;9.102;2022-09-09T14:53:09;1.63;;;0.43;;
30850;SDS011;17567;48.382;9.102;2022-09-09T14:58:10;2.13;;;0.70;;
30850;SDS011;17567;48.382;9.102;2022-09-09T15:03:11;2.33;;;0.70;;
30850;SDS011;17567;48.382;9.102;2022-09-09T15:08:11;2.77;;;0.77;;
30850;SDS011;17567;48.382;9.102;2022-09-09T15:13:14;3.00;;;0.70;;
30850;SDS011;17567;48.382;9.102;2022-09-09T15:18:16;3.33;;;1.13;;
30850;SDS011;17567;48.382;9.102;2022-09-09T15:23:17;2.10;;;0.53;;
30850;SDS011;17567;48.382;9.102;2022-09-09T15:28:18;1.93;;;0.37;;
30850;SDS011;17567;48.382;9.102;2022-09-09T15:33:19;2.40;;;0.60;;
30850;SDS011;17567;48.382;9.102;2022-09-09T15:38:21;0.73;;;0.40;;
30850;SDS011;17567;48.382;9.102;2022-09-09T15:43:21;0.83;;;0.67;;
30850;SDS011;17567;48.382;9.102;2022-09-09T15:48:26;2.53;;;0.50;;
30850;SDS011;17567;48.382;9.102;2022-09-09T15:53:31;2.30;;;0.30;;
30850;SDS011;17567;48.382;9.102;2022-09-09T15:58:32;0.67;;;0.30;;
30850;SDS011;17567;48.382;9.102;2022-09-09T16:03:34;0.77;;;0.30;;
30850;SDS011;17567;48.382;9.102;2022-09-09T16:08:36;2.30;;;0.40;;
30850;SDS011;17567;48.382;9.102;2022-09-09T16:13:42;1.00;;;0.40;;
30850;SDS011;17567;48.382;9.102;2022-09-09T16:18:44;1.60;;;0.37;;
30850;SDS011;17567;48.382;9.102;2022-09-09T16:23:48;0.70;;;0.50;;
30850;SDS011;17567;48.382;9.102;2022-09-09T16:28:50;1.27;;;0.50;;
30850;SDS011;17567;48.382;9.102;2022-09-09T16:33:51;0.80;;;0.50;;
30850;SDS011;17567;48.382;9.102;2022-09-09T16:38:55;2.10;;;0.40;;
30850;SDS011;17567;48.382;9.102;2022-09-09T16:44:00;1.60;;;0.60;;
30850;SDS011;17567;48.382;9.102;2022-09-09T16:49:03;0.93;;;0.50;;
30850;SDS011;17567;48.382;9.102;2022-09-09T16:54:05;1.83;;;0.50;;
30850;SDS011;17567;48.382;9.102;2022-09-09T16:59:08;1.30;;;0.60;;
30850;SDS011;17567;48.382;9.102;2022-09-09T17:04:15;2.40;;;0.60;;
30850;SDS011;17567;48.382;9.102;2022-09-09T17:09:20;1.40;;;0.60;;
30850;SDS011;17567;48.382;9.102;2022-09-09T17:14:22;0.90;;;0.60;;
30850;SDS011;17567;48.382;9.102;2022-09-09T17:19:23;1.03;;;0.60;;
30850;SDS011;17567;48.382;9.102;2022-09-09T17:24:25;1.87;;;0.60;;
30850;SDS011;17567;48.382;9.102;2022-09-09T17:29:28;1.47;;;0.90;;
30850;SDS011;17567;48.382;9.102;2022-09-09T17:34:29;1.40;;;1.30;;
30850;SDS011;17567;48.382;9.102;2022-09-09T17:39:30;3.13;;;1.13;;
30850;SDS011;17567;48.382;9.102;2022-09-09T17:44:32;1.87;;;0.60;;
30850;SDS011;17567;48.382;9.102;2022-09-09T17:49:33;1.83;;;1.00;;
30850;SDS011;17567;48.382;9.102;2022-09-09T17:54:34;1.53;;;0.70;;
30850;SDS011;17567;48.382;9.102;2022-09-09T17:59:35;0.97;;;0.50;;
30850;SDS011;17567;48.382;9.102;2022-09-09T18:04:36;2.63;;;0.60;;
30850;SDS011;17567;48.382;9.102;2022-09-09T18:09:37;2.17;;;0.60;;
30850;SDS011;17567;48.382;9.102;2022-09-09T18:14:39;1.70;;;0.60;;
30850;SDS011;17567;48.382;9.102;2022-09-09T18:19:40;2.03;;;1.20;;
30850;SDS011;17567;48.382;9.102;2022-09-09T18:24:40;1.13;;;0.60;;
30850;SDS011;17567;48.382;9.102;2022-09-09T18:29:44;1.53;;;0.60;;
30850;SDS011;17567;48.382;9.102;2022-09-09T18:34:45;2.97;;;0.60;;
30850;SDS011;17567;48.382;9.102;2022-09-09T18:39:45;1.20;;;0.60;;
30850;SDS011;17567;48.382;9.102;2022-09-09T18:44:49;4.80;;;0.70;;
30850;SDS011;17567;48.382;9.102;2022-09-09T18:49:51;2.30;;;0.83;;
30850;SDS011;17567;48.382;9.102;2022-09-09T18:54:55;1.53;;;0.80;;
30850;SDS011;17567;48.382;9.102;2022-09-09T18:59:56;0.83;;;0.60;;
30850;SDS011;17567;48.382;9.102;2022-09-09T19:04:57;1.10;;;0.83;;
30850;SDS011;17567;48.382;9.102;2022-09-09T19:09:58;3.50;;;0.83;;
30850;SDS011;17567;48.382;9.102;2022-09-09T19:15:01;1.60;;;0.60;;
30850;SDS011;17567;48.382;9.102;2022-09-09T19:20:02;4.67;;;0.80;;
30850;SDS011;17567;48.382;9.102;2022-09-09T19:25:04;1.27;;;0.70;;
30850;SDS011;17567;48.382;9.102;2022-09-09T19:30:08;1.50;;;0.60;;
30850;SDS011;17567;48.382;9.102;2022-09-09T19:35:09;1.37;;;0.70;;
30850;SDS011;17567;48.382;9.102;2022-09-09T19:40:10;0.77;;;0.60;;
30850;SDS011;17567;48.382;9.102;2022-09-09T19:45:11;0.87;;;0.57;;
30850;SDS011;17567;48.382;9.102;2022-09-09T19:50:12;1.70;;;0.80;;
30850;SDS011;17567;48.382;9.102;2022-09-09T19:55:13;1.90;;;0.70;;
30850;SDS011;17567;48.382;9.102;2022-09-09T20:00:14;1.53;;;0.70;;
30850;SDS011;17567;48.382;9.102;2022-09-09T20:05:15;2.20;;;0.80;;
30850;SDS011;17567;48.382;9.102;2022-09-09T20:10:15;3.83;;;0.80;;
30850;SDS011;17567;48.382;9.102;2022-09-09T20:15:16;1.13;;;0.77;;
30850;SDS011;17567;48.382;9.102;2022-09-09T20:20:17;2.57;;;0.90;;
30850;SDS011;17567;48.382;9.102;2022-09-09T20:25:18;1.00;;;0.70;;
30850;SDS011;17567;48.382;9.102;2022-09-09T20:30:23;2.90;;;0.70;;
30850;SDS011;17567;48.382;9.102;2022-09-09T20:35:27;1.63;;;1.00;;
30850;SDS011;17567;48.382;9.102;2022-09-09T20:40:28;3.73;;;0.80;;
30850;SDS011;17567;48.382;9.102;2022-09-09T20:45:29;3.80;;;0.90;;
30850;SDS011;17567;48.382;9.102;2022-09-09T20:50:35;3.17;;;0.90;;
30850;SDS011;17567;48.382;9.102;2022-09-09T20:55:38;2.87;;;0.80;;
30850;SDS011;17567;48.382;9.102;2022-09-09T21:00:39;2.20;;;0.77;;
30850;SDS011;17567;48.382;9.102;2022-09-09T21:05:40;1.40;;;0.90;;
30850;SDS011;17567;48.382;9.102;2022-09-09T21:10:42;2.70;;;1.10;;
30850;SDS011;17567;48.382;9.102;2022-09-09T21:15:45;3.07;;;1.03;;
30850;SDS011;17567;48.382;9.102;2022-09-09T21:20:46;5.03;;;0.87;;
30850;SDS011;17567;48.382;9.102;2022-09-09T21:25:48;1.87;;;0.80;;
30850;SDS011;17567;48.382;9.102;2022-09-09T21:30:50;1.73;;;0.90;;
30850;SDS011;17567;48.382;9.102;2022-09-09T21:36:00;2.33;;;0.80;;
30850;SDS011;17567;48.382;9.102;2022-09-09T21:41:04;0.80;;;0.60;;
30850;SDS011;17567;48.382;9.102;2022-09-09T21:46:08;1.07;;;0.83;;
30850;SDS011;17567;48.382;9.102;2022-09-09T21:51:14;0.73;;;0.63;;
30850;SDS011;17567;48.382;9.102;2022-09-09T21:56:16;1.53;;;0.73;;
30850;SDS011;17567;48.382;9.102;2022-09-09T22:01:17;1.47;;;0.77;;
30850;SDS011;17567;48.382;9.102;2022-09-09T22:06:18;0.50;;;0.50;;
30850;SDS011;17567;48.382;9.102;2022-09-09T22:11:20;1.87;;;0.83;;
30850;SDS011;17567;48.382;9.102;2022-09-09T22:16:24;1.20;;;0.70;;
30850;SDS011;17567;48.382;9.102;2022-09-09T22:21:27;2.20;;;0.80;;
30850;SDS011;17567;48.382;9.102;2022-09-09T22:26:29;1.07;;;0.80;;
30850;SDS011;17567;48.382;9.102;2022-09-09T22:31:31;1.00;;;0.60;;
30850;SDS011;17567;48.382;9.102;2022-09-09T22:36:32;2.17;;;1.00;;
30850;SDS011;17567;48.382;9.102;2022-09-09T22:41:33;1.13;;;0.63;;
30850;SDS011;17567;48.382;9.102;2022-09-09T22:46:34;1.07;;;0.60;;
30850;SDS011;17567;48.382;9.102;2022-09-09T22:51:35;1.17;;;0.70;;
30850;SDS011;17567;48.382;9.102;2022-09-09T22:56:36;1.77;;;0.90;;
30850;SDS011;17567;48.382;9.102;2022-09-09T23:01:37;1.03;;;0.90;;
30850;SDS011;17567;48.382;9.102;2022-09-09T23:06:37;1.13;;;0.70;;
30850;SDS011;17567;48.382;9.102;2022-09-09T23:11:40;1.03;;;0.60;;
30850;SDS011;17567;48.382;9.102;2022-09-09T23:16:44;1.07;;;0.67;;
30850;SDS011;17567;48.382;9.102;2022-09-09T23:21:45;1.43;;;0.60;;
30850;SDS011;17567;48.382;9.102;2022-09-09T23:26:46;0.80;;;0.60;;
30850;SDS011;17567;48.382;9.102;2022-09-09T23:31:47;0.77;;;0.70;;
30850;SDS011;17567;48.382;9.102;2022-09-09T23:36:48;2.50;;;0.70;;
30850;SDS011;17567;48.382;9.102;2022-09-09T23:41:49;2.23;;;0.80;;
30850;SDS011;17567;48.382;9.102;2022-09-09T23:46:50;4.87;;;0.90;;
30850;SDS011;17567;48.382;9.102;2022-09-09T23:51:50;0.80;;;0.60;;
30850;SDS011;17567;48.382;9.102;2022-09-09T23:56:51;4.23;;;0.70;;
